sensor_id;sensor_type;location;lat;lon;timestamp;pressure;altitude;pressure_sealevel;temperature;humidity
75538;BME280;64121;48.666;8.114;2023-04-24T00:02:23;98997.75;;;11.72;77.91
75538;BME280;64121;48.666;8.114;2023-04-24T00:04:50;98999.78;;;11.75;78.26
75538;BME280;64121;48.666;8.114;2023-04-24T00:07:15;98995.38;;;11.74;78.00
75538;BME280;64121;48.666;8.114;2023-04-24T00:09:41;98997.84;;;11.79;78.62
75538;BME280;64121;48.666;8.114;2023-04-24T00:12:06;98986.59;;;11.72;78.59
75538;BME280;64121;48.666;8.114;2023-04-24T00:14:31;98989.38;;;11.72;77.84
75538;BME280;64121;48.666;8.114;2023-04-24T00:16:57;98995.81;;;11.76;78.62
75538;BME280;64121;48.666;8.114;2023-04-24T00:19:22;99004.94;;;11.73;78.61
75538;BME280;64121;48.666;8.114;2023-04-24T00:21:49;99000.84;;;11.67;78.67
75538;BME280;64121;48.666;8.114;2023-04-24T00:24:14;98999.28;;;11.70;78.96
75538;BME280;64121;48.666;8.114;2023-04-24T00:26:39;99001.72;;;11.71;79.43
75538;BME280;64121;48.666;8.114;2023-04-24T00:29:05;99001.28;;;11.69;79.59
75538;BME280;64121;48.666;8.114;2023-04-24T00:31:30;98985.00;;;11.71;79.12
75538;BME280;64121;48.666;8.114;2023-04-24T00:33:55;98993.41;;;11.75;78.66
75538;BME280;64121;48.666;8.114;2023-04-24T00:36:21;98987.06;;;11.78;78.38
75538;BME280;64121;48.666;8.114;2023-04-24T00:38:47;98987.03;;;11.74;79.44
75538;BME280;64121;48.666;8.114;2023-04-24T00:41:13;98983.75;;;11.69;79.04
75538;BME280;64121;48.666;8.114;2023-04-24T00:43:38;98989.72;;;11.67;80.06
75538;BME280;64121;48.666;8.114;2023-04-24T00:46:04;98991.78;;;11.74;79.12
75538;BME280;64121;48.666;8.114;2023-04-24T00:48:30;98988.63;;;11.75;78.87
75538;BME280;64121;48.666;8.114;2023-04-24T00:50:56;98998.19;;;11.78;78.43
75538;BME280;64121;48.666;8.114;2023-04-24T00:53:22;98989.38;;;11.72;78.71
75538;BME280;64121;48.666;8.114;2023-04-24T00:55:48;98996.56;;;11.73;78.84
75538;BME280;64121;48.666;8.114;2023-04-24T00:58:14;99003.03;;;11.81;78.60
75538;BME280;64121;48.666;8.114;2023-04-24T01:00:39;98995.09;;;11.83;77.92
75538;BME280;64121;48.666;8.114;2023-04-24T01:03:05;98996.41;;;11.93;78.76
75538;BME280;64121;48.666;8.114;2023-04-24T01:05:31;98987.25;;;11.92;78.69
75538;BME280;64121;48.666;8.114;2023-04-24T01:07:57;98986.38;;;11.88;78.65
75538;BME280;64121;48.666;8.114;2023-04-24T01:10:24;98986.38;;;11.88;79.44
75538;BME280;64121;48.666;8.114;2023-04-24T01:12:51;98982.78;;;11.88;78.98
75538;BME280;64121;48.666;8.114;2023-04-24T01:15:17;98991.97;;;11.88;79.63
75538;BME280;64121;48.666;8.114;2023-04-24T01:17:43;98995.06;;;11.79;81.09
75538;BME280;64121;48.666;8.114;2023-04-24T01:20:09;98991.03;;;11.77;81.70
75538;BME280;64121;48.666;8.114;2023-04-24T01:22:36;98993.28;;;11.68;82.33
75538;BME280;64121;48.666;8.114;2023-04-24T01:25:02;98999.22;;;11.63;82.67
75538;BME280;64121;48.666;8.114;2023-04-24T01:27:28;99003.16;;;11.58;83.05
75538;BME280;64121;48.666;8.114;2023-04-24T01:29:53;99005.09;;;11.54;84.75
75538;BME280;64121;48.666;8.114;2023-04-24T01:32:19;99011.34;;;11.47;85.61
75538;BME280;64121;48.666;8.114;2023-04-24T01:34:45;99008.03;;;11.35;87.09
75538;BME280;64121;48.666;8.114;2023-04-24T01:37:11;99008.84;;;11.35;87.22
75538;BME280;64121;48.666;8.114;2023-04-24T01:39:38;99005.16;;;11.31;87.53
75538;BME280;64121;48.666;8.114;2023-04-24T01:42:04;98995.13;;;11.23;87.78
75538;BME280;64121;48.666;8.114;2023-04-24T01:44:30;99001.13;;;11.25;88.31
75538;BME280;64121;48.666;8.114;2023-04-24T01:46:55;98998.31;;;11.21;88.16
75538;BME280;64121;48.666;8.114;2023-04-24T01:49:21;98991.78;;;11.10;90.00
75538;BME280;64121;48.666;8.114;2023-04-24T01:51:46;98988.59;;;11.12;88.51
75538;BME280;64121;48.666;8.114;2023-04-24T01:54:12;98980.25;;;11.12;89.07
75538;BME280;64121;48.666;8.114;2023-04-24T01:56:41;98981.34;;;11.04;88.98
75538;BME280;64121;48.666;8.114;2023-04-24T01:59:07;98989.22;;;10.98;89.86
75538;BME280;64121;48.666;8.114;2023-04-24T02:01:34;98974.50;;;10.98;89.32
75538;BME280;64121;48.666;8.114;2023-04-24T02:04:00;98978.44;;;10.97;89.29
75538;BME280;64121;48.666;8.114;2023-04-24T02:06:25;98964.81;;;10.88;89.78
75538;BME280;64121;48.666;8.114;2023-04-24T02:08:50;98975.63;;;10.93;89.51
75538;BME280;64121;48.666;8.114;2023-04-24T02:11:15;98961.28;;;10.91;89.16
75538;BME280;64121;48.666;8.114;2023-04-24T02:13:42;98968.06;;;10.93;89.14
75538;BME280;64121;48.666;8.114;2023-04-24T02:16:07;98966.41;;;10.89;89.26
75538;BME280;64121;48.666;8.114;2023-04-24T02:18:33;98973.25;;;10.95;88.47
75538;BME280;64121;48.666;8.114;2023-04-24T02:20:58;98965.03;;;11.02;87.77
75538;BME280;64121;48.666;8.114;2023-04-24T02:23:24;98970.22;;;11.04;87.45
75538;BME280;64121;48.666;8.114;2023-04-24T02:25:49;98970.22;;;11.04;87.75
75538;BME280;64121;48.666;8.114;2023-04-24T02:28:14;98974.97;;;11.03;88.30
75538;BME280;64121;48.666;8.114;2023-04-24T02:30:41;98974.84;;;10.96;88.94
75538;BME280;64121;48.666;8.114;2023-04-24T02:33:06;98964.59;;;11.00;88.44
75538;BME280;64121;48.666;8.114;2023-04-24T02:35:32;98965.88;;;11.06;88.06
75538;BME280;64121;48.666;8.114;2023-04-24T02:37:57;98969.06;;;11.08;88.47
75538;BME280;64121;48.666;8.114;2023-04-24T02:40:22;98976.25;;;11.09;87.97
75538;BME280;64121;48.666;8.114;2023-04-24T02:42:47;98971.81;;;11.05;88.57
75538;BME280;64121;48.666;8.114;2023-04-24T02:45:13;98967.09;;;11.09;87.76
75538;BME280;64121;48.666;8.114;2023-04-24T02:47:39;98982.19;;;11.08;87.85
75538;BME280;64121;48.666;8.114;2023-04-24T02:50:06;98978.66;;;11.11;88.18
75538;BME280;64121;48.666;8.114;2023-04-24T02:52:32;98982.25;;;11.11;87.64
75538;BME280;64121;48.666;8.114;2023-04-24T02:54:57;98988.59;;;11.12;88.35
75538;BME280;64121;48.666;8.114;2023-04-24T02:57:22;98993.88;;;11.17;87.12
75538;BME280;64121;48.666;8.114;2023-04-24T02:59:48;98991.44;;;11.15;87.45
75538;BME280;64121;48.666;8.114;2023-04-24T03:02:13;98990.69;;;11.18;87.21
75538;BME280;64121;48.666;8.114;2023-04-24T03:04:40;98999.91;;;11.22;86.45
75538;BME280;64121;48.666;8.114;2023-04-24T03:07:05;99006.59;;;11.18;86.86
75538;BME280;64121;48.666;8.114;2023-04-24T03:09:30;99030.06;;;11.17;87.25
75538;BME280;64121;48.666;8.114;2023-04-24T03:11:56;99057.78;;;11.10;89.70
75538;BME280;64121;48.666;8.114;2023-04-24T03:14:21;99067.66;;;11.04;91.24
75538;BME280;64121;48.666;8.114;2023-04-24T03:16:47;99054.28;;;10.90;93.21
75538;BME280;64121;48.666;8.114;2023-04-24T03:19:12;99071.78;;;10.64;95.87
75538;BME280;64121;48.666;8.114;2023-04-24T03:21:39;99067.88;;;10.69;94.77
75538;BME280;64121;48.666;8.114;2023-04-24T03:24:04;99084.25;;;10.74;95.49
75538;BME280;64121;48.666;8.114;2023-04-24T03:26:30;99088.31;;;10.57;96.54
75538;BME280;64121;48.666;8.114;2023-04-24T03:28:55;99082.66;;;10.50;96.88
75538;BME280;64121;48.666;8.114;2023-04-24T03:31:20;99084.41;;;10.39;95.01
75538;BME280;64121;48.666;8.114;2023-04-24T03:33:46;99098.44;;;10.23;91.75
75538;BME280;64121;48.666;8.114;2023-04-24T03:36:11;99100.97;;;10.12;89.80
75538;BME280;64121;48.666;8.114;2023-04-24T03:38:37;99106.41;;;10.05;89.96
75538;BME280;64121;48.666;8.114;2023-04-24T03:41:03;99103.41;;;9.94;89.01
75538;BME280;64121;48.666;8.114;2023-04-24T03:43:28;99112.41;;;9.88;90.59
75538;BME280;64121;48.666;8.114;2023-04-24T03:45:53;99107.06;;;9.79;89.90
75538;BME280;64121;48.666;8.114;2023-04-24T03:48:19;99116.56;;;9.78;89.77
75538;BME280;64121;48.666;8.114;2023-04-24T03:50:44;99124.03;;;9.74;90.57
75538;BME280;64121;48.666;8.114;2023-04-24T03:53:10;99127.59;;;9.75;91.39
75538;BME280;64121;48.666;8.114;2023-04-24T03:55:36;99126.47;;;9.60;92.29
75538;BME280;64121;48.666;8.114;2023-04-24T03:58:02;99133.69;;;9.45;93.18
75538;BME280;64121;48.666;8.114;2023-04-24T04:00:27;99140.47;;;9.48;92.04
75538;BME280;64121;48.666;8.114;2023-04-24T04:02:52;99140.78;;;9.43;92.20
75538;BME280;64121;48.666;8.114;2023-04-24T04:05:18;99139.22;;;9.45;92.45
75538;BME280;64121;48.666;8.114;2023-04-24T04:07:43;99154.38;;;9.48;93.03
75538;BME280;64121;48.666;8.114;2023-04-24T04:10:09;99149.47;;;9.41;93.90
75538;BME280;64121;48.666;8.114;2023-04-24T04:12:35;99147.06;;;9.39;94.98
75538;BME280;64121;48.666;8.114;2023-04-24T04:15:01;99147.34;;;9.34;95.70
75538;BME280;64121;48.666;8.114;2023-04-24T04:17:26;99144.56;;;9.34;95.49
75538;BME280;64121;48.666;8.114;2023-04-24T04:19:51;99150.03;;;9.31;95.70
75538;BME280;64121;48.666;8.114;2023-04-24T04:22:17;99145.44;;;9.38;96.30
75538;BME280;64121;48.666;8.114;2023-04-24T04:24:42;99153.44;;;9.24;96.38
75538;BME280;64121;48.666;8.114;2023-04-24T04:27:07;99155.69;;;9.19;97.02
75538;BME280;64121;48.666;8.114;2023-04-24T04:29:34;99155.59;;;9.15;97.77
75538;BME280;64121;48.666;8.114;2023-04-24T04:31:59;99163.94;;;9.15;97.21
75538;BME280;64121;48.666;8.114;2023-04-24T04:34:25;99157.50;;;9.11;97.48
75538;BME280;64121;48.666;8.114;2023-04-24T04:36:50;99164.81;;;9.03;98.28
75538;BME280;64121;48.666;8.114;2023-04-24T04:39:15;99176.91;;;8.95;99.07
75538;BME280;64121;48.666;8.114;2023-04-24T04:41:41;99170.66;;;8.98;98.96
75538;BME280;64121;48.666;8.114;2023-04-24T04:44:06;99172.63;;;9.14;98.44
75538;BME280;64121;48.666;8.114;2023-04-24T04:46:33;99172.13;;;9.27;97.99
75538;BME280;64121;48.666;8.114;2023-04-24T04:48:58;99175.47;;;9.17;98.86
75538;BME280;64121;48.666;8.114;2023-04-24T04:51:24;99186.75;;;9.24;98.39
75538;BME280;64121;48.666;8.114;2023-04-24T04:53:49;99186.81;;;9.44;97.52
75538;BME280;64121;48.666;8.114;2023-04-24T04:56:14;99180.72;;;9.54;97.35
75538;BME280;64121;48.666;8.114;2023-04-24T04:58:40;99191.44;;;9.55;97.84
75538;BME280;64121;48.666;8.114;2023-04-24T05:01:05;99198.25;;;9.58;97.60
75538;BME280;64121;48.666;8.114;2023-04-24T05:03:32;99199.34;;;9.53;98.04
75538;BME280;64121;48.666;8.114;2023-04-24T05:05:57;99202.28;;;9.60;97.74
75538;BME280;64121;48.666;8.114;2023-04-24T05:08:23;99199.50;;;9.60;98.33
75538;BME280;64121;48.666;8.114;2023-04-24T05:10:48;99200.31;;;9.61;98.04
75538;BME280;64121;48.666;8.114;2023-04-24T05:13:13;99199.06;;;9.58;97.87
75538;BME280;64121;48.666;8.114;2023-04-24T05:15:38;99211.41;;;9.61;97.61
75538;BME280;64121;48.666;8.114;2023-04-24T05:18:04;99204.31;;;9.63;98.06
75538;BME280;64121;48.666;8.114;2023-04-24T05:20:31;99212.28;;;9.65;97.75
75538;BME280;64121;48.666;8.114;2023-04-24T05:22:56;99216.78;;;9.69;97.59
75538;BME280;64121;48.666;8.114;2023-04-24T05:25:21;99215.63;;;9.70;97.49
75538;BME280;64121;48.666;8.114;2023-04-24T05:27:46;99220.72;;;9.68;97.32
75538;BME280;64121;48.666;8.114;2023-04-24T05:30:12;99218.91;;;9.76;96.99
75538;BME280;64121;48.666;8.114;2023-04-24T05:32:37;99224.47;;;9.76;96.80
75538;BME280;64121;48.666;8.114;2023-04-24T05:35:03;99226.81;;;9.74;96.37
75538;BME280;64121;48.666;8.114;2023-04-24T05:37:30;99229.94;;;9.73;96.44
75538;BME280;64121;48.666;8.114;2023-04-24T05:39:55;99230.09;;;9.80;95.78
75538;BME280;64121;48.666;8.114;2023-04-24T05:42:21;99225.63;;;9.75;95.56
75538;BME280;64121;48.666;8.114;2023-04-24T05:44:46;99237.19;;;9.77;95.40
75538;BME280;64121;48.666;8.114;2023-04-24T05:47:11;99239.25;;;9.80;95.29
75538;BME280;64121;48.666;8.114;2023-04-24T05:49:37;99239.25;;;9.80;95.14
75538;BME280;64121;48.666;8.114;2023-04-24T05:52:02;99249.91;;;9.78;95.26
75538;BME280;64121;48.666;8.114;2023-04-24T05:54:29;99248.75;;;9.79;95.07
75538;BME280;64121;48.666;8.114;2023-04-24T05:56:54;99249.63;;;9.83;95.19
75538;BME280;64121;48.666;8.114;2023-04-24T05:59:19;99260.22;;;9.78;94.41
75538;BME280;64121;48.666;8.114;2023-04-24T06:01:45;99264.59;;;9.79;93.44
75538;BME280;64121;48.666;8.114;2023-04-24T06:04:11;99269.00;;;9.80;93.90
75538;BME280;64121;48.666;8.114;2023-04-24T06:06:37;99273.75;;;9.79;94.25
75538;BME280;64121;48.666;8.114;2023-04-24T06:09:02;99280.03;;;9.76;94.46
75538;BME280;64121;48.666;8.114;2023-04-24T06:11:29;99276.88;;;9.78;93.74
75538;BME280;64121;48.666;8.114;2023-04-24T06:13:54;99284.13;;;9.82;92.57
75538;BME280;64121;48.666;8.114;2023-04-24T06:16:19;99290.78;;;9.78;92.34
75538;BME280;64121;48.666;8.114;2023-04-24T06:18:45;99291.41;;;9.87;92.05
75538;BME280;64121;48.666;8.114;2023-04-24T06:21:10;99291.75;;;9.85;91.26
75538;BME280;64121;48.666;8.114;2023-04-24T06:23:35;99290.59;;;9.86;91.19
75538;BME280;64121;48.666;8.114;2023-04-24T06:26:01;99294.88;;;9.84;91.72
75538;BME280;64121;48.666;8.114;2023-04-24T06:28:27;99297.66;;;9.84;91.88
75538;BME280;64121;48.666;8.114;2023-04-24T06:30:53;99299.63;;;9.99;91.51
75538;BME280;64121;48.666;8.114;2023-04-24T06:33:18;99308.13;;;10.06;90.44
75538;BME280;64121;48.666;8.114;2023-04-24T06:35:43;99304.19;;;10.07;90.52
75538;BME280;64121;48.666;8.114;2023-04-24T06:38:09;99308.03;;;10.02;90.25
75538;BME280;64121;48.666;8.114;2023-04-24T06:40:34;99305.97;;;9.99;90.51
75538;BME280;64121;48.666;8.114;2023-04-24T06:42:59;99313.72;;;9.90;89.88
75538;BME280;64121;48.666;8.114;2023-04-24T06:45:26;99317.66;;;9.89;90.28
75538;BME280;64121;48.666;8.114;2023-04-24T06:47:51;99312.72;;;9.98;89.36
75538;BME280;64121;48.666;8.114;2023-04-24T06:50:17;99315.56;;;10.02;88.96
75538;BME280;64121;48.666;8.114;2023-04-24T06:52:42;99320.31;;;10.01;89.04
75538;BME280;64121;48.666;8.114;2023-04-24T06:55:08;99327.75;;;10.13;88.74
75538;BME280;64121;48.666;8.114;2023-04-24T06:57:33;99325.31;;;10.27;88.56
75538;BME280;64121;48.666;8.114;2023-04-24T06:59:59;99326.94;;;10.28;88.43
75538;BME280;64121;48.666;8.114;2023-04-24T07:02:25;99336.53;;;10.31;87.87
75538;BME280;64121;48.666;8.114;2023-04-24T07:04:51;99334.94;;;10.49;86.88
75538;BME280;64121;48.666;8.114;2023-04-24T07:07:16;99335.31;;;10.48;85.58
75538;BME280;64121;48.666;8.114;2023-04-24T07:09:42;99328.66;;;10.52;86.07
75538;BME280;64121;48.666;8.114;2023-04-24T07:12:07;99321.91;;;10.53;86.12
75538;BME280;64121;48.666;8.114;2023-04-24T07:14:33;99340.16;;;10.70;86.83
75538;BME280;64121;48.666;8.114;2023-04-24T07:16:58;99334.38;;;10.79;85.38
75538;BME280;64121;48.666;8.114;2023-04-24T07:19:25;99336.81;;;10.80;83.92
75538;BME280;64121;48.666;8.114;2023-04-24T07:21:50;99345.78;;;10.74;83.52
75538;BME280;64121;48.666;8.114;2023-04-24T07:24:15;99332.41;;;10.60;82.11
75538;BME280;64121;48.666;8.114;2023-04-24T07:26:41;99348.88;;;10.69;81.95
75538;BME280;64121;48.666;8.114;2023-04-24T07:29:06;99357.91;;;10.81;75.64
75538;BME280;64121;48.666;8.114;2023-04-24T07:31:32;99350.50;;;10.89;72.54
75538;BME280;64121;48.666;8.114;2023-04-24T07:33:57;99353.47;;;11.19;69.84
75538;BME280;64121;48.666;8.114;2023-04-24T07:36:24;99352.66;;;11.38;67.36
75538;BME280;64121;48.666;8.114;2023-04-24T07:38:49;99361.13;;;11.45;69.14
75538;BME280;64121;48.666;8.114;2023-04-24T07:41:15;99369.34;;;11.38;68.49
75538;BME280;64121;48.666;8.114;2023-04-24T07:43:40;99364.72;;;11.45;69.37
75538;BME280;64121;48.666;8.114;2023-04-24T07:46:05;99361.44;;;11.40;71.17
75538;BME280;64121;48.666;8.114;2023-04-24T07:48:31;99380.53;;;11.18;67.54
75538;BME280;64121;48.666;8.114;2023-04-24T07:50:57;99378.38;;;11.12;70.20
75538;BME280;64121;48.666;8.114;2023-04-24T07:53:23;99384.94;;;11.00;71.10
75538;BME280;64121;48.666;8.114;2023-04-24T07:55:49;99386.00;;;10.96;71.41
75538;BME280;64121;48.666;8.114;2023-04-24T07:58:14;99390.75;;;10.95;73.15
75538;BME280;64121;48.666;8.114;2023-04-24T08:00:39;99388.72;;;11.11;72.34
75538;BME280;64121;48.666;8.114;2023-04-24T08:03:05;99392.59;;;11.26;71.01
75538;BME280;64121;48.666;8.114;2023-04-24T08:05:30;99400.94;;;11.26;69.49
75538;BME280;64121;48.666;8.114;2023-04-24T08:07:56;99407.38;;;11.30;70.30
75538;BME280;64121;48.666;8.114;2023-04-24T08:10:22;99404.97;;;11.29;69.85
75538;BME280;64121;48.666;8.114;2023-04-24T08:12:48;99412.09;;;11.26;69.63
75538;BME280;64121;48.666;8.114;2023-04-24T08:15:14;99417.28;;;11.08;68.96
75538;BME280;64121;48.666;8.114;2023-04-24T08:17:39;99419.34;;;10.92;67.43
75538;BME280;64121;48.666;8.114;2023-04-24T08:20:05;99431.50;;;10.84;66.34
75538;BME280;64121;48.666;8.114;2023-04-24T08:22:31;99417.34;;;10.73;66.91
75538;BME280;64121;48.666;8.114;2023-04-24T08:24:59;99425.81;;;10.61;67.01
75538;BME280;64121;48.666;8.114;2023-04-24T08:27:27;99428.94;;;10.59;67.00
75538;BME280;64121;48.666;8.114;2023-04-24T08:29:52;99444.97;;;10.47;68.70
75538;BME280;64121;48.666;8.114;2023-04-24T08:32:18;99448.47;;;10.44;67.09
75538;BME280;64121;48.666;8.114;2023-04-24T08:34:43;99446.13;;;10.46;66.39
75538;BME280;64121;48.666;8.114;2023-04-24T08:37:09;99457.50;;;10.41;66.27
75538;BME280;64121;48.666;8.114;2023-04-24T08:39:34;99453.13;;;10.40;66.71
75538;BME280;64121;48.666;8.114;2023-04-24T08:42:00;99457.78;;;10.51;66.04
75538;BME280;64121;48.666;8.114;2023-04-24T08:44:26;99453.66;;;10.61;65.63
75538;BME280;64121;48.666;8.114;2023-04-24T08:46:52;99461.22;;;10.80;65.34
75538;BME280;64121;48.666;8.114;2023-04-24T08:49:18;99466.91;;;11.03;63.89
75538;BME280;64121;48.666;8.114;2023-04-24T08:51:44;99471.25;;;11.19;62.36
75538;BME280;64121;48.666;8.114;2023-04-24T08:54:11;99469.75;;;11.64;63.15
75538;BME280;64121;48.666;8.114;2023-04-24T08:56:37;99475.38;;;11.87;61.52
75538;BME280;64121;48.666;8.114;2023-04-24T08:59:02;99484.22;;;12.12;62.96
75538;BME280;64121;48.666;8.114;2023-04-24T09:01:32;99479.06;;;12.14;60.78
75538;BME280;64121;48.666;8.114;2023-04-24T09:03:57;99482.84;;;12.25;62.25
75538;BME280;64121;48.666;8.114;2023-04-24T09:06:23;99486.00;;;12.47;60.35
75538;BME280;64121;48.666;8.114;2023-04-24T09:08:49;99491.66;;;12.50;59.23
75538;BME280;64121;48.666;8.114;2023-04-24T09:11:18;99491.47;;;12.39;60.32
75538;BME280;64121;48.666;8.114;2023-04-24T09:13:44;99487.50;;;12.18;60.83
75538;BME280;64121;48.666;8.114;2023-04-24T09:16:10;99490.59;;;12.12;60.80
75538;BME280;64121;48.666;8.114;2023-04-24T09:18:37;99496.03;;;12.05;60.71
75538;BME280;64121;48.666;8.114;2023-04-24T09:21:04;99496.13;;;12.09;61.59
75538;BME280;64121;48.666;8.114;2023-04-24T09:23:31;99496.47;;;12.07;59.81
75538;BME280;64121;48.666;8.114;2023-04-24T09:25:58;99507.13;;;12.02;60.80
75538;BME280;64121;48.666;8.114;2023-04-24T09:28:30;99504.22;;;11.95;60.45
75538;BME280;64121;48.666;8.114;2023-04-24T09:31:06;99503.41;;;11.94;60.40
75538;BME280;64121;48.666;8.114;2023-04-24T09:33:32;99502.56;;;11.90;61.80
75538;BME280;64121;48.666;8.114;2023-04-24T09:35:59;99514.38;;;12.06;61.28
75538;BME280;64121;48.666;8.114;2023-04-24T09:38:30;99511.41;;;11.96;62.07
75538;BME280;64121;48.666;8.114;2023-04-24T09:40:59;99513.31;;;11.72;62.81
75538;BME280;64121;48.666;8.114;2023-04-24T09:43:26;99515.56;;;11.67;61.99
75538;BME280;64121;48.666;8.114;2023-04-24T09:45:55;99505.09;;;11.41;63.77
75538;BME280;64121;48.666;8.114;2023-04-24T09:48:29;99521.59;;;11.49;61.99
75538;BME280;64121;48.666;8.114;2023-04-24T09:50:54;99523.94;;;11.47;62.23
75538;BME280;64121;48.666;8.114;2023-04-24T09:53:25;99531.44;;;11.63;62.96
75538;BME280;64121;48.666;8.114;2023-04-24T09:55:50;99533.81;;;11.80;62.59
75538;BME280;64121;48.666;8.114;2023-04-24T09:58:15;99531.88;;;11.84;62.14
75538;BME280;64121;48.666;8.114;2023-04-24T10:00:41;99535.03;;;11.82;62.35
75538;BME280;64121;48.666;8.114;2023-04-24T10:03:06;99532.91;;;11.95;62.17
75538;BME280;64121;48.666;8.114;2023-04-24T10:05:32;99527.72;;;11.94;63.18
75538;BME280;64121;48.666;8.114;2023-04-24T10:08:01;99531.00;;;11.80;62.94
75538;BME280;64121;48.666;8.114;2023-04-24T10:10:28;99522.94;;;11.56;64.47
75538;BME280;64121;48.666;8.114;2023-04-24T10:12:54;99528.63;;;11.43;64.81
75538;BME280;64121;48.666;8.114;2023-04-24T10:15:20;99532.69;;;11.11;63.90
75538;BME280;64121;48.666;8.114;2023-04-24T10:17:46;99533.44;;;11.08;65.01
75538;BME280;64121;48.666;8.114;2023-04-24T10:20:12;99546.38;;;11.35;64.76
75538;BME280;64121;48.666;8.114;2023-04-24T10:22:38;99542.94;;;11.61;65.91
75538;BME280;64121;48.666;8.114;2023-04-24T10:25:04;99548.59;;;11.84;64.57
75538;BME280;64121;48.666;8.114;2023-04-24T10:27:31;99549.66;;;12.18;63.36
75538;BME280;64121;48.666;8.114;2023-04-24T10:29:57;99552.81;;;12.17;62.48
75538;BME280;64121;48.666;8.114;2023-04-24T10:32:23;99549.66;;;12.18;61.69
75538;BME280;64121;48.666;8.114;2023-04-24T10:34:48;99550.78;;;12.13;61.28
75538;BME280;64121;48.666;8.114;2023-04-24T10:37:14;99539.28;;;11.76;62.57
75538;BME280;64121;48.666;8.114;2023-04-24T10:39:40;99543.69;;;11.77;63.14
75538;BME280;64121;48.666;8.114;2023-04-24T10:42:14;99543.16;;;11.52;62.12
75538;BME280;64121;48.666;8.114;2023-04-24T10:44:40;99544.84;;;11.38;63.55
75538;BME280;64121;48.666;8.114;2023-04-24T10:47:12;99550.56;;;11.10;63.79
75538;BME280;64121;48.666;8.114;2023-04-24T10:49:38;99546.47;;;11.04;64.51
75538;BME280;64121;48.666;8.114;2023-04-24T10:52:04;99560.31;;;11.00;64.92
75538;BME280;64121;48.666;8.114;2023-04-24T10:54:34;99557.16;;;11.02;63.07
75538;BME280;64121;48.666;8.114;2023-04-24T10:57:28;99562.59;;;11.14;64.57
75538;BME280;64121;48.666;8.114;2023-04-24T11:00:13;99554.19;;;11.30;62.83
75538;BME280;64121;48.666;8.114;2023-04-24T11:02:40;99558.34;;;11.36;62.71
75538;BME280;64121;48.666;8.114;2023-04-24T11:05:06;99558.19;;;11.48;62.42
75538;BME280;64121;48.666;8.114;2023-04-24T11:08:10;99554.47;;;11.60;63.42
75538;BME280;64121;48.666;8.114;2023-04-24T11:10:38;99553.88;;;11.89;62.46
75538;BME280;64121;48.666;8.114;2023-04-24T11:13:03;99556.59;;;12.05;62.97
75538;BME280;64121;48.666;8.114;2023-04-24T11:15:30;99562.38;;;12.16;62.28
75538;BME280;64121;48.666;8.114;2023-04-24T11:17:56;99562.47;;;12.00;62.97
75538;BME280;64121;48.666;8.114;2023-04-24T11:20:23;99564.59;;;11.87;62.30
75538;BME280;64121;48.666;8.114;2023-04-24T11:22:52;99565.81;;;11.70;62.30
75538;BME280;64121;48.666;8.114;2023-04-24T11:25:18;99560.03;;;11.60;62.93
75538;BME280;64121;48.666;8.114;2023-04-24T11:27:44;99576.31;;;11.58;61.03
75538;BME280;64121;48.666;8.114;2023-04-24T11:30:10;99587.28;;;11.50;61.29
75538;BME280;64121;48.666;8.114;2023-04-24T11:32:38;99573.88;;;11.37;62.17
75538;BME280;64121;48.666;8.114;2023-04-24T11:35:06;99588.28;;;11.23;63.85
75538;BME280;64121;48.666;8.114;2023-04-24T11:37:36;99592.56;;;11.36;62.93
75538;BME280;64121;48.666;8.114;2023-04-24T11:40:02;99581.41;;;11.36;64.32
75538;BME280;64121;48.666;8.114;2023-04-24T11:42:28;99580.03;;;11.46;64.19
75538;BME280;64121;48.666;8.114;2023-04-24T11:44:54;99589.25;;;11.50;64.84
75538;BME280;64121;48.666;8.114;2023-04-24T11:47:20;99587.44;;;11.38;64.20
75538;BME280;64121;48.666;8.114;2023-04-24T11:49:50;99592.31;;;11.26;63.65
75538;BME280;64121;48.666;8.114;2023-04-24T11:52:15;99592.97;;;11.19;63.89
75538;BME280;64121;48.666;8.114;2023-04-24T11:54:47;99595.38;;;11.20;63.13
75538;BME280;64121;48.666;8.114;2023-04-24T11:57:12;99591.25;;;11.14;63.70
75538;BME280;64121;48.666;8.114;2023-04-24T11:59:37;99587.22;;;11.12;66.05
75538;BME280;64121;48.666;8.114;2023-04-24T12:02:03;99593.94;;;11.11;65.89
75538;BME280;64121;48.666;8.114;2023-04-24T12:04:38;99598.56;;;11.03;69.00
75538;BME280;64121;48.666;8.114;2023-04-24T12:07:05;99587.63;;;10.79;71.90
75538;BME280;64121;48.666;8.114;2023-04-24T12:09:40;99605.22;;;10.67;71.46
75538;BME280;64121;48.666;8.114;2023-04-24T12:12:06;99607.19;;;10.67;72.63
75538;BME280;64121;48.666;8.114;2023-04-24T12:14:31;99594.53;;;10.69;75.03
75538;BME280;64121;48.666;8.114;2023-04-24T12:16:57;99596.22;;;10.74;77.36
75538;BME280;64121;48.666;8.114;2023-04-24T12:19:23;99587.88;;;10.74;74.73
75538;BME280;64121;48.666;8.114;2023-04-24T12:22:00;99586.72;;;10.75;76.36
75538;BME280;64121;48.666;8.114;2023-04-24T12:24:26;99587.44;;;10.87;76.13
75538;BME280;64121;48.666;8.114;2023-04-24T12:26:52;99588.44;;;10.79;74.95
75538;BME280;64121;48.666;8.114;2023-04-24T12:29:20;99590.50;;;10.82;76.44
75538;BME280;64121;48.666;8.114;2023-04-24T12:31:45;99596.84;;;10.99;74.78
75538;BME280;64121;48.666;8.114;2023-04-24T12:34:17;99597.53;;;11.11;74.52
75538;BME280;64121;48.666;8.114;2023-04-24T12:36:43;99592.69;;;11.08;76.75
75538;BME280;64121;48.666;8.114;2023-04-24T12:39:14;99593.97;;;10.95;74.58
75538;BME280;64121;48.666;8.114;2023-04-24T12:41:50;99593.44;;;10.89;74.70
75538;BME280;64121;48.666;8.114;2023-04-24T12:44:15;99596.38;;;10.97;74.31
75538;BME280;64121;48.666;8.114;2023-04-24T12:46:40;99600.91;;;10.85;76.50
75538;BME280;64121;48.666;8.114;2023-04-24T12:49:06;99600.19;;;10.73;76.63
75538;BME280;64121;48.666;8.114;2023-04-24T12:51:31;99593.81;;;10.88;77.13
75538;BME280;64121;48.666;8.114;2023-04-24T12:53:56;99598.41;;;10.80;77.79
75538;BME280;64121;48.666;8.114;2023-04-24T12:56:22;99590.13;;;10.84;75.91
75538;BME280;64121;48.666;8.114;2023-04-24T12:58:48;99587.88;;;10.89;74.88